Time;durP1;ratioP1;P1;durP2;ratioP2;P2;SDS_P1;SDS_P2;PMS_P1;PMS_P2;Temp;Humidity;BMP_temperature;BMP_pressure;BME280_temperature;BME280_humidity;BME280_pressure;Samples;Min_cycle;Max_cycle;Signal;HPM_P1;HPM_P2
2023/10/17 00:01:18;;;;;;;36.30;15.80;;;;;;;-148.88;100.00;-17125.47;4996847;28;20431;-87
2023/10/17 00:03:45;;;;;;;23.73;6.75;;;;;;;-148.88;100.00;-17125.47;4997179;28;20280;-87
2023/10/17 00:06:13;;;;;;;14.15;5.97;;;;;;;-148.88;100.00;-17125.47;4995821;28;20026;-87
2023/10/17 00:08:39;;;;;;;8.63;4.80;;;;;;;-148.88;100.00;-17125.47;4996641;28;20056;-87
2023/10/17 00:11:26;;;;;;;10.18;5.53;;;;;;;-148.88;100.00;-17125.47;4996526;28;20440;-87
2023/10/17 00:13:59;;;;;;;7.75;5.28;;;;;;;-148.88;100.00;-17125.47;4996665;28;20026;-87
2023/10/17 00:16:26;;;;;;;16.52;11.50;;;;;;;-148.88;100.00;-17125.47;4995402;28;20488;-87
2023/10/17 00:18:52;;;;;;;21.98;6.22;;;;;;;-148.88;100.00;-17125.47;4996508;28;20117;-88
2023/10/17 00:21:25;;;;;;;14.90;5.72;;;;;;;-148.88;100.00;-17125.47;4995156;28;20058;-87
2023/10/17 00:23:52;;;;;;;11.17;6.20;;;;;;;-148.88;100.00;-17125.47;4996366;28;20062;-88
2023/10/17 00:26:18;;;;;;;34.15;6.80;;;;;;;-148.88;100.00;-17125.47;4996478;28;20018;-87
2023/10/17 00:28:52;;;;;;;14.18;5.88;;;;;;;-148.88;100.00;-17125.47;4996353;28;20036;-87
2023/10/17 00:31:21;;;;;;;59.45;9.27;;;;;;;-148.88;100.00;-17125.47;4995124;28;20485;-87
2023/10/17 00:33:55;;;;;;;25.80;6.18;;;;;;;-148.88;100.00;-17125.47;4996359;28;20022;-87
2023/10/17 00:36:21;;;;;;;17.38;6.50;;;;;;;-148.88;100.00;-17125.47;4994933;28;20034;-87
2023/10/17 00:38:47;;;;;;;40.50;7.93;;;;;;;-148.88;100.00;-17125.47;4996695;28;20391;-87
2023/10/17 00:41:29;;;;;;;8.20;5.05;;;;;;;-148.88;100.00;-17125.47;4996639;28;20649;-86
2023/10/17 00:43:54;;;;;;;7.07;5.13;;;;;;;-148.88;100.00;-17125.47;4995143;28;20416;-87
2023/10/17 00:46:19;;;;;;;23.25;5.75;;;;;;;-148.88;100.00;-17125.47;4996196;28;20026;-87
2023/10/17 00:48:48;;;;;;;8.23;5.18;;;;;;;-148.88;100.00;-17125.47;4995829;28;20026;-87
2023/10/17 00:51:18;;;;;;;27.58;6.45;;;;;;;-148.88;100.00;-17125.47;4994693;28;20081;-87
2023/10/17 00:53:45;;;;;;;13.45;5.55;;;;;;;-148.88;100.00;-17125.47;4994507;28;20038;-87
2023/10/17 00:56:11;;;;;;;9.75;5.78;;;;;;;-148.88;100.00;-17125.47;4995841;28;20023;-87
2023/10/17 00:58:36;;;;;;;10.77;5.78;;;;;;;-148.88;100.00;-17125.47;4995627;28;20027;-87
2023/10/17 01:01:16;;;;;;;10.30;5.10;;;;;;;-148.88;100.00;-17125.47;4995886;28;20029;-87
2023/10/17 01:03:43;;;;;;;9.25;5.47;;;;;;;-148.88;100.00;-17125.47;4996093;28;20066;-87
2023/10/17 01:08:57;;;;;;;49.88;7.32;;;;;;;-148.88;100.00;-17125.47;4995896;28;20535;-87
2023/10/17 01:11:29;;;;;;;13.70;6.07;;;;;;;-148.88;100.00;-17125.47;4995135;28;20117;-87
2023/10/17 01:13:57;;;;;;;20.27;5.53;;;;;;;-148.88;100.00;-17125.47;4995687;28;20018;-88
2023/10/17 01:16:24;;;;;;;9.35;4.97;;;;;;;-148.88;100.00;-17125.47;4995311;28;20022;-85
2023/10/17 01:18:50;;;;;;;18.20;12.80;;;;;;;-148.88;100.00;-17125.47;5010412;28;20033;-85
2023/10/17 01:21:20;;;;;;;11.68;5.25;;;;;;;-148.88;100.00;-17125.47;5010644;28;20026;-86
2023/10/17 01:23:50;;;;;;;33.38;6.43;;;;;;;-148.88;100.00;-17125.47;4995317;28;20022;-86
2023/10/17 01:26:21;;;;;;;10.10;4.97;;;;;;;-148.88;100.00;-17125.47;4995080;28;20475;-86
2023/10/17 01:28:48;;;;;;;68.43;8.88;;;;;;;-148.88;100.00;-17125.47;4995669;28;20491;-86
2023/10/17 01:31:15;;;;;;;52.33;8.35;;;;;;;-148.88;100.00;-17125.47;4995373;28;20092;-87
2023/10/17 01:33:45;;;;;;;9.35;5.50;;;;;;;-148.88;100.00;-17125.47;4995208;28;20025;-87
2023/10/17 01:36:12;;;;;;;52.92;8.35;;;;;;;-148.88;100.00;-17125.47;4995527;28;20038;-86
2023/10/17 01:38:38;;;;;;;23.27;6.13;;;;;;;-148.88;100.00;-17125.47;4994270;28;20018;-86
2023/10/17 01:41:05;;;;;;;12.85;5.75;;;;;;;-148.88;100.00;-17125.47;4995362;28;20022;-86
2023/10/17 01:43:35;;;;;;;14.18;6.63;;;;;;;-148.88;100.00;-17125.47;5010269;28;20022;-87
2023/10/17 01:46:01;;;;;;;21.13;13.73;;;;;;;-148.88;100.00;-17125.47;4994589;28;20022;-86
2023/10/17 01:48:26;;;;;;;10.55;5.65;;;;;;;-148.88;100.00;-17125.47;4994338;28;20022;-86
2023/10/17 01:50:53;;;;;;;9.38;5.38;;;;;;;-148.88;100.00;-17125.47;4995024;28;20031;-86
2023/10/17 01:53:19;;;;;;;9.90;5.80;;;;;;;-148.88;100.00;-17125.47;4995190;28;20069;-86
2023/10/17 01:55:52;;;;;;;13.40;5.95;;;;;;;-148.88;100.00;-17125.47;4993675;28;20473;-86
2023/10/17 01:58:22;;;;;;;19.25;6.18;;;;;;;-148.88;100.00;-17125.47;4994560;28;20026;-86
2023/10/17 02:00:47;;;;;;;13.32;6.75;;;;;;;-148.88;100.00;-17125.47;4995275;28;20073;-87
2023/10/17 02:03:16;;;;;;;12.50;5.65;;;;;;;-148.88;100.00;-17125.47;5013137;28;20050;-87
2023/10/17 02:05:42;;;;;;;11.38;6.13;;;;;;;-148.88;100.00;-17125.47;4995262;28;20026;-87
2023/10/17 02:08:08;;;;;;;21.38;6.90;;;;;;;-148.88;100.00;-17125.47;4995027;28;20037;-88
2023/10/17 02:10:34;;;;;;;12.82;5.68;;;;;;;-148.88;100.00;-17125.47;4993840;28;20029;-88
2023/10/17 02:13:00;;;;;;;12.60;5.60;;;;;;;-148.88;100.00;-17125.47;4994451;28;20149;-88
2023/10/17 02:15:26;;;;;;;13.20;6.20;;;;;;;-148.88;100.00;-17125.47;4994373;28;20053;-88
2023/10/17 02:17:53;;;;;;;11.43;6.22;;;;;;;-148.88;100.00;-17125.47;4994953;28;20030;-88
2023/10/17 02:22:54;;;;;;;66.63;9.38;;;;;;;-148.88;100.00;-17125.47;4994499;28;20037;-87
2023/10/17 02:25:28;;;;;;;10.13;6.38;;;;;;;-148.88;100.00;-17125.47;4994916;28;20366;-87
2023/10/17 02:27:53;;;;;;;14.95;6.22;;;;;;;-148.88;100.00;-17125.47;4993936;28;20571;-88
2023/10/17 02:30:20;;;;;;;12.70;5.65;;;;;;;-148.88;100.00;-17125.47;4994279;28;20077;-87
2023/10/17 02:32:52;;;;;;;11.85;6.40;;;;;;;-148.88;100.00;-17125.47;4994883;28;20110;-87
2023/10/17 02:35:20;;;;;;;12.05;6.65;;;;;;;-148.88;100.00;-17125.47;5009462;28;20097;-87
2023/10/17 02:37:47;;;;;;;10.68;5.70;;;;;;;-148.88;100.00;-17125.47;4994381;28;20077;-87
2023/10/17 02:40:20;;;;;;;14.75;6.22;;;;;;;-148.88;100.00;-17125.47;4994406;28;20018;-87
2023/10/17 02:42:46;;;;;;;24.88;7.55;;;;;;;-148.88;100.00;-17125.47;4993368;28;20469;-86
2023/10/17 02:45:12;;;;;;;13.35;5.50;;;;;;;-148.88;100.00;-17125.47;4994237;28;20027;-87
2023/10/17 02:47:39;;;;;;;37.67;14.30;;;;;;;-148.88;100.00;-17125.47;4994308;28;20029;-87
2023/10/17 02:50:20;;;;;;;19.08;5.80;;;;;;;-148.88;100.00;-17125.47;4994293;28;20030;-86
2023/10/17 02:52:51;;;;;;;18.20;6.15;;;;;;;-148.88;100.00;-17125.47;4994696;28;20067;-86
2023/10/17 02:55:23;;;;;;;10.98;6.15;;;;;;;-148.88;100.00;-17125.47;4994179;28;20571;-86
2023/10/17 02:57:50;;;;;;;35.30;16.58;;;;;;;-148.88;100.00;-17125.47;4993244;28;20023;-86
2023/10/17 03:00:22;;;;;;;25.75;6.55;;;;;;;-148.88;100.00;-17125.47;5009179;28;20089;-86
2023/10/17 03:02:52;;;;;;;10.95;5.93;;;;;;;-148.88;100.00;-17125.47;4994369;28;20388;-87
2023/10/17 03:05:18;;;;;;;17.05;6.97;;;;;;;-148.88;100.00;-17125.47;4994122;28;20022;-87
2023/10/17 03:07:49;;;;;;;11.05;6.07;;;;;;;-148.88;100.00;-17125.47;4994199;28;20076;-86
2023/10/17 03:13:05;;;;;;;23.98;7.57;;;;;;;-148.88;100.00;-17125.47;4994446;28;20447;-86
2023/10/17 03:15:31;;;;;;;14.75;6.38;;;;;;;-148.88;100.00;-17125.47;4993867;28;20029;-87
2023/10/17 03:18:00;;;;;;;86.90;9.65;;;;;;;-148.88;100.00;-17125.47;4992450;28;20022;-87
2023/10/17 03:20:36;;;;;;;28.88;6.80;;;;;;;-148.88;100.00;-17125.47;5009339;28;20034;-85
2023/10/17 03:23:04;;;;;;;17.90;6.85;;;;;;;-148.88;100.00;-17125.47;4992687;28;20075;-86
2023/10/17 03:25:37;;;;;;;11.68;5.93;;;;;;;-148.88;100.00;-17125.47;4995749;28;20065;-86
2023/10/17 03:28:13;;;;;;;52.53;7.15;;;;;;;-148.88;100.00;-17125.47;4996556;28;20090;-86
2023/10/17 03:30:38;;;;;;;54.95;7.63;;;;;;;-148.88;100.00;-17125.47;4997907;28;20097;-87
2023/10/17 03:33:14;;;;;;;14.15;5.30;;;;;;;-148.88;100.00;-17125.47;5013152;28;20050;-87
2023/10/17 03:38:27;;;;;;;12.07;5.68;;;;;;;-148.88;100.00;-17125.47;4997800;28;20026;-86
2023/10/17 03:40:54;;;;;;;12.00;4.80;;;;;;;-148.88;100.00;-17125.47;4996428;28;20037;-86
2023/10/17 03:43:21;;;;;;;10.32;4.85;;;;;;;-148.88;100.00;-17125.47;4996090;28;20516;-86
2023/10/17 03:45:58;;;;;;;10.52;5.18;;;;;;;-148.88;100.00;-17125.47;4997226;28;20030;-86
2023/10/17 03:48:28;;;;;;;15.45;6.22;;;;;;;-148.88;100.00;-17125.47;4997560;28;20030;-87
2023/10/17 03:51:08;;;;;;;8.80;4.88;;;;;;;-148.88;100.00;-17125.47;4996465;28;20034;-87
2023/10/17 03:53:42;;;;;;;33.63;6.63;;;;;;;-148.88;100.00;-17125.47;4997946;28;20109;-87
2023/10/17 03:56:11;;;;;;;54.00;8.45;;;;;;;-148.88;100.00;-17125.47;5012745;28;20038;-86
2023/10/17 04:01:35;;;;;;;61.47;6.57;;;;;;;-148.88;100.00;-17125.47;4964710;28;20034;-87
2023/10/17 04:04:02;;;;;;;26.05;5.63;;;;;;;-148.88;100.00;-17125.47;4997333;28;20036;-86
2023/10/17 04:06:40;;;;;;;21.92;5.32;;;;;;;-148.88;100.00;-17125.47;4997304;28;20053;-85
2023/10/17 04:11:45;;;;;;;13.30;5.40;;;;;;;-148.88;100.00;-17125.47;4997259;28;20026;-85
2023/10/17 04:14:10;;;;;;;14.73;5.90;;;;;;;-148.88;100.00;-17125.47;4997020;28;20015;-86
2023/10/17 04:16:39;;;;;;;10.32;4.93;;;;;;;-148.88;100.00;-17125.47;5012095;28;20092;-85
2023/10/17 04:19:05;;;;;;;17.90;5.78;;;;;;;-148.88;100.00;-17125.47;4997013;28;20452;-86
2023/10/17 04:21:32;;;;;;;14.10;5.22;;;;;;;-148.88;100.00;-17125.47;4996585;28;20030;-85
2023/10/17 04:24:07;;;;;;;20.35;4.97;;;;;;;-148.88;100.00;-17125.47;4996422;28;20061;-85
2023/10/17 04:26:35;;;;;;;12.75;4.60;;;;;;;-148.88;100.00;-17125.47;4994046;28;20069;-87
2023/10/17 04:29:18;;;;;;;38.83;6.57;;;;;;;-148.88;100.00;-17125.47;4996176;28;20037;-86
2023/10/17 04:31:45;;;;;;;67.03;6.93;;;;;;;-148.88;100.00;-17125.47;4996353;28;20027;-89
2023/10/17 04:34:21;;;;;;;23.30;12.27;;;;;;;-148.88;100.00;-17125.47;4996230;28;20488;-88
2023/10/17 04:36:51;;;;;;;26.42;5.78;;;;;;;-148.88;100.00;-17125.47;4996406;28;20027;-87
2023/10/17 04:44:25;;;;;;;14.50;5.32;;;;;;;-148.88;100.00;-17125.47;4997033;28;20030;-88
2023/10/17 04:47:06;;;;;;;29.45;5.82;;;;;;;-148.88;100.00;-17125.47;4995342;28;20033;-88
2023/10/17 04:49:36;;;;;;;29.85;6.20;;;;;;;-148.88;100.00;-17125.47;4995038;28;20125;-87
2023/10/17 04:52:09;;;;;;;57.42;14.32;;;;;;;-148.88;100.00;-17125.47;4996125;28;20026;-86
2023/10/17 04:57:09;;;;;;;27.83;6.50;;;;;;;-148.88;100.00;-17125.47;4996646;28;20084;-88
2023/10/17 05:07:53;;;;;;;61.58;13.70;;;;;;;-148.88;100.00;-17125.47;4994445;28;20408;-86
2023/10/17 06:18:32;;;;;;;40.50;6.97;;;;;;;-148.88;100.00;-17125.47;4994620;28;19916;-87
2023/10/17 06:34:38;;;;;;;12.93;5.70;;;;;;;-148.88;100.00;-17125.47;5017339;22;20850;-75
2023/10/17 06:37:07;;;;;;;14.65;4.82;;;;;;;-148.88;100.00;-17125.47;4993157;28;20034;-76
2023/10/17 06:39:36;;;;;;;16.20;5.30;;;;;;;-148.88;100.00;-17125.47;4993039;28;20108;-76
2023/10/17 06:42:15;;;;;;;21.75;5.88;;;;;;;-148.88;100.00;-17125.47;4993134;28;20054;-76
2023/10/17 06:44:52;;;;;;;23.27;5.47;;;;;;;-148.88;100.00;-17125.47;4991943;28;20031;-76
2023/10/17 06:47:40;;;;;;;21.08;5.95;;;;;;;-148.88;100.00;-17125.47;4992680;28;20022;-76
2023/10/17 06:52:54;;;;;;;26.77;5.78;;;;;;;-148.88;100.00;-17125.47;4994183;28;20105;-76
2023/10/17 06:55:21;;;;;;;19.98;6.70;;;;;;;-148.88;100.00;-17125.47;4993507;28;20416;-76
2023/10/17 06:57:51;;;;;;;37.17;7.18;;;;;;;-148.88;100.00;-17125.47;4993390;28;20481;-76
2023/10/17 07:03:02;;;;;;;24.35;6.97;;;;;;;-148.88;100.00;-17125.47;4997410;28;20037;-76
2023/10/17 07:05:27;;;;;;;54.70;13.88;;;;;;;-148.88;100.00;-17125.47;5011996;28;20400;-76
2023/10/17 07:07:52;;;;;;;15.07;5.63;;;;;;;-148.88;100.00;-17125.47;4995722;28;20057;-76
2023/10/17 07:13:31;;;;;;;31.25;7.07;;;;;;;-148.88;100.00;-17125.47;4997189;28;20025;-76
2023/10/17 07:16:04;;;;;;;24.95;6.20;;;;;;;-148.88;100.00;-17125.47;4995107;28;20129;-76
2023/10/17 07:23:48;;;;;;;23.30;6.00;;;;;;;-148.88;100.00;-17125.47;4995471;28;20026;-76
2023/10/17 07:26:17;;;;;;;36.47;14.23;;;;;;;-148.88;100.00;-17125.47;5011732;28;20493;-76
2023/10/17 07:28:52;;;;;;;81.57;8.05;;;;;;;-148.88;100.00;-17125.47;4997185;28;20105;-76
2023/10/17 07:31:20;;;;;;;29.73;6.82;;;;;;;-148.88;100.00;-17125.47;4996902;28;20026;-76
2023/10/17 07:33:47;;;;;;;19.20;5.32;;;;;;;-148.88;100.00;-17125.47;5012098;28;20045;-77
2023/10/17 07:36:18;;;;;;;16.77;4.97;;;;;;;-148.88;100.00;-17125.47;4996616;28;20523;-77
2023/10/17 07:38:44;;;;;;;17.13;5.47;;;;;;;-148.88;100.00;-17125.47;4997154;28;20026;-78
2023/10/17 07:41:13;;;;;;;12.98;5.72;;;;;;;-148.88;100.00;-17125.47;4997099;28;20048;-77
2023/10/17 07:43:46;;;;;;;54.67;6.28;;;;;;;-148.88;100.00;-17125.47;4995167;28;20440;-76
2023/10/17 07:46:19;;;;;;;26.92;6.10;;;;;;;-148.88;100.00;-17125.47;4996248;28;20093;-76
2023/10/17 07:48:48;;;;;;;31.25;14.00;;;;;;;-148.88;100.00;-17125.47;4995045;28;20101;-77
2023/10/17 07:51:15;;;;;;;29.90;6.22;;;;;;;-148.88;100.00;-17125.47;4994841;28;20037;-77
2023/10/17 07:53:45;;;;;;;37.42;6.15;;;;;;;-148.88;100.00;-17125.47;5011187;28;20014;-76
2023/10/17 07:56:20;;;;;;;29.38;6.97;;;;;;;-148.88;100.00;-17125.47;5011597;28;20122;-77
2023/10/17 07:58:46;;;;;;;11.82;5.05;;;;;;;-148.88;100.00;-17125.47;4996341;28;20065;-76
2023/10/17 08:01:15;;;;;;;24.95;6.13;;;;;;;-148.88;100.00;-17125.47;4996387;28;20029;-76
2023/10/17 08:03:45;;;;;;;18.75;5.88;;;;;;;-148.88;100.00;-17125.47;4996746;28;20022;-76
2023/10/17 08:06:12;;;;;;;17.77;5.90;;;;;;;-148.88;100.00;-17125.47;4996611;28;20030;-77
2023/10/17 08:08:43;;;;;;;26.73;6.85;;;;;;;-148.88;100.00;-17125.47;4995833;28;20461;-76
2023/10/17 08:11:27;;;;;;;18.95;6.03;;;;;;;-148.88;100.00;-17125.47;4995363;28;20033;-76
2023/10/17 08:13:57;;;;;;;26.77;13.82;;;;;;;-148.88;100.00;-17125.47;5010829;28;20014;-76
2023/10/17 08:16:29;;;;;;;16.65;5.85;;;;;;;-148.88;100.00;-17125.47;4995506;28;20026;-76
2023/10/17 08:19:14;;;;;;;17.50;5.65;;;;;;;-148.88;100.00;-17125.47;5010666;28;20025;-75
2023/10/17 08:22:26;;;;;;;18.98;6.15;;;;;;;-148.88;100.00;-17125.47;5011159;28;20062;-76
2023/10/17 08:24:26;;;;;;;14.00;5.50;;;;;;;-148.88;100.00;-17125.47;4998357;28;20077;-76
2023/10/17 08:27:13;;;;;;;15.57;5.32;;;;;;;-148.88;100.00;-17125.47;4995617;28;20031;-76
2023/10/17 08:29:42;;;;;;;19.65;6.75;;;;;;;-148.88;100.00;-17125.47;5010494;28;20026;-76
2023/10/17 08:32:55;;;;;;;12.50;5.68;;;;;;;-148.88;100.00;-17125.47;4995411;28;20516;-76
2023/10/17 08:35:03;;;;;;;18.95;5.35;;;;;;;-148.88;100.00;-17125.47;4996021;28;20062;-75
2023/10/17 08:37:30;;;;;;;11.00;4.45;;;;;;;-148.88;100.00;-17125.47;4995571;28;20026;-76
2023/10/17 08:39:59;;;;;;;13.32;5.85;;;;;;;-148.88;100.00;-17125.47;4995286;28;20060;-75
2023/10/17 08:42:30;;;;;;;13.35;5.35;;;;;;;-148.88;100.00;-17125.47;5010215;28;20481;-75
2023/10/17 08:45:01;;;;;;;11.38;4.63;;;;;;;-148.88;100.00;-17125.47;4995491;28;20109;-75
2023/10/17 08:47:30;;;;;;;11.65;5.38;;;;;;;-148.88;100.00;-17125.47;4995257;28;20062;-75
2023/10/17 08:50:00;;;;;;;10.85;4.75;;;;;;;-148.88;100.00;-17125.47;4995157;28;20046;-75
2023/10/17 08:52:35;;;;;;;14.23;5.85;;;;;;;-148.88;100.00;-17125.47;4993977;28;20023;-75
2023/10/17 08:55:02;;;;;;;14.15;5.68;;;;;;;-148.88;100.00;-17125.47;4995173;28;20022;-75
2023/10/17 08:57:29;;;;;;;26.30;6.47;;;;;;;-148.88;100.00;-17125.47;4995047;28;20041;-74
2023/10/17 09:02:48;;;;;;;18.95;5.88;;;;;;;-148.88;100.00;-17125.47;4994914;28;20157;-75
2023/10/17 09:05:18;;;;;;;14.68;5.60;;;;;;;-148.88;100.00;-17125.47;4994830;28;20034;-75
2023/10/17 09:07:48;;;;;;;22.00;7.47;;;;;;;-148.88;100.00;-17125.47;4993649;28;20026;-75
2023/10/17 09:10:21;;;;;;;16.02;6.38;;;;;;;-148.88;100.00;-17125.47;4993470;28;20022;-75
2023/10/17 09:15:48;;;;;;;15.65;5.85;;;;;;;-148.88;100.00;-17125.47;4995396;28;20087;-74
2023/10/17 09:18:14;;;;;;;23.50;13.35;;;;;;;-148.88;100.00;-17125.47;4993558;28;20023;-74
2023/10/17 09:20:40;;;;;;;19.27;6.30;;;;;;;-148.88;100.00;-17125.47;4993438;28;20053;-75
2023/10/17 09:23:28;;;;;;;16.33;5.85;;;;;;;-148.88;100.00;-17125.47;4993620;28;20112;-75
2023/10/17 09:25:58;;;;;;;28.80;14.82;;;;;;;-148.88;100.00;-17125.47;4994462;28;20105;-75
2023/10/17 09:28:28;;;;;;;18.00;6.78;;;;;;;-148.88;100.00;-17125.47;4994584;28;20026;-75
2023/10/17 09:31:12;;;;;;;17.52;6.22;;;;;;;-148.88;100.00;-17125.47;4993164;28;20033;-74
2023/10/17 09:33:43;;;;;;;27.10;14.77;;;;;;;-148.88;100.00;-17125.47;4994451;28;20018;-75
2023/10/17 09:36:09;;;;;;;20.67;7.78;;;;;;;-148.88;100.00;-17125.47;4992891;28;20509;-75
2023/10/17 09:38:45;;;;;;;17.88;6.57;;;;;;;-148.88;100.00;-17125.47;4992814;28;20045;-75
2023/10/17 09:41:17;;;;;;;16.00;6.90;;;;;;;-148.88;100.00;-17125.47;4992960;28;20489;-75
2023/10/17 09:43:43;;;;;;;18.65;6.32;;;;;;;-148.88;100.00;-17125.47;4992857;28;20117;-75
2023/10/17 09:46:14;;;;;;;20.98;7.35;;;;;;;-148.88;100.00;-17125.47;4994348;28;20050;-75
2023/10/17 09:48:46;;;;;;;27.48;14.35;;;;;;;-148.88;100.00;-17125.47;4994216;28;20102;-74
2023/10/17 09:51:24;;;;;;;17.77;6.32;;;;;;;-148.88;100.00;-17125.47;4994202;28;20025;-75
2023/10/17 09:53:54;;;;;;;18.38;6.38;;;;;;;-148.88;100.00;-17125.47;4994164;28;20436;-74
2023/10/17 09:56:42;;;;;;;23.60;13.93;;;;;;;-148.88;100.00;-17125.47;4994253;28;20025;-75
2023/10/17 09:59:16;;;;;;;18.50;6.28;;;;;;;-148.88;100.00;-17125.47;4993608;28;20038;-74
2023/10/17 10:01:45;;;;;;;14.18;5.72;;;;;;;-148.88;100.00;-17125.47;4993927;28;20481;-75
2023/10/17 10:04:12;;;;;;;19.60;12.57;;;;;;;-148.88;100.00;-17125.47;4994083;28;20030;-75
2023/10/17 10:06:39;;;;;;;19.08;11.77;;;;;;;-148.88;100.00;-17125.47;4993744;28;20026;-75
2023/10/17 10:09:13;;;;;;;20.98;11.48;;;;;;;-148.88;100.00;-17125.47;4992454;28;20053;-76
2023/10/17 10:11:48;;;;;;;10.73;4.97;;;;;;;-148.88;100.00;-17125.47;4994017;28;20374;-75
2023/10/17 10:14:13;;;;;;;15.77;5.50;;;;;;;-148.88;100.00;-17125.47;4993707;28;20080;-75
2023/10/17 10:16:55;;;;;;;14.05;9.07;;;;;;;-148.88;100.00;-17125.47;4993660;28;20385;-75
2023/10/17 10:19:23;;;;;;;13.43;5.22;;;;;;;-148.88;100.00;-17125.47;4993658;28;20397;-75
2023/10/17 10:21:59;;;;;;;9.75;5.40;;;;;;;-148.88;100.00;-17125.47;4992150;28;20557;-75
2023/10/17 10:24:33;;;;;;;11.80;8.48;;;;;;;-148.88;100.00;-17125.47;4993404;28;20109;-75
2023/10/17 10:27:26;;;;;;;13.80;9.30;;;;;;;-148.88;100.00;-17125.47;4993598;28;20026;-75
2023/10/17 10:30:29;;;;;;;15.40;9.40;;;;;;;-148.88;100.00;-17125.47;5008595;28;20026;-75
2023/10/17 10:32:57;;;;;;;15.45;9.52;;;;;;;-148.88;100.00;-17125.47;5008599;28;20027;-75
2023/10/17 10:35:22;;;;;;;16.85;10.35;;;;;;;-148.88;100.00;-17125.47;4992981;28;20038;-75
2023/10/17 10:37:53;;;;;;;14.20;9.48;;;;;;;-148.88;100.00;-17125.47;4993700;28;20040;-75
2023/10/17 10:42:57;;;;;;;14.68;9.65;;;;;;;-148.88;100.00;-17125.47;4993597;28;20026;-75
2023/10/17 10:45:35;;;;;;;13.90;10.38;;;;;;;-148.88;100.00;-17125.47;5007639;28;20050;-75
2023/10/17 10:48:18;;;;;;;14.75;9.88;;;;;;;-148.88;100.00;-17125.47;4993298;28;20022;-75
2023/10/17 10:50:45;;;;;;;14.85;10.18;;;;;;;-148.88;100.00;-17125.47;4991726;28;20042;-75
2023/10/17 10:53:31;;;;;;;12.60;9.85;;;;;;;-148.88;100.00;-17125.47;4993169;28;20071;-75
2023/10/17 10:56:09;;;;;;;14.40;9.63;;;;;;;-148.88;100.00;-17125.47;5008411;28;20113;-75
2023/10/17 10:58:51;;;;;;;16.35;9.60;;;;;;;-148.88;100.00;-17125.47;4993359;28;20088;-74
2023/10/17 11:01:18;;;;;;;14.30;10.18;;;;;;;-148.88;100.00;-17125.47;4993312;28;20485;-75
2023/10/17 11:03:48;;;;;;;13.60;10.60;;;;;;;-148.88;100.00;-17125.47;4993132;28;20046;-74
2023/10/17 11:06:23;;;;;;;13.77;10.10;;;;;;;-148.88;100.00;-17125.47;4993350;28;20501;-75
2023/10/17 11:08:49;;;;;;;11.75;9.95;;;;;;;-148.88;100.00;-17125.47;4991814;28;20030;-75
2023/10/17 11:11:19;;;;;;;14.10;9.95;;;;;;;-148.88;100.00;-17125.47;4993189;28;20034;-75
2023/10/17 11:13:50;;;;;;;13.02;9.73;;;;;;;-148.88;100.00;-17125.47;4991890;28;20034;-75
2023/10/17 11:16:21;;;;;;;13.43;9.13;;;;;;;-148.88;100.00;-17125.47;5008174;28;20513;-75
2023/10/17 11:18:48;;;;;;;12.32;8.82;;;;;;;-148.88;100.00;-17125.47;5009096;28;20370;-75
2023/10/17 11:21:16;;;;;;;12.45;8.73;;;;;;;-148.88;100.00;-17125.47;4993158;28;20038;-75
2023/10/17 11:23:46;;;;;;;13.05;8.73;;;;;;;-148.88;100.00;-17125.47;4993060;28;20047;-75
2023/10/17 11:26:12;;;;;;;11.80;8.98;;;;;;;-148.88;100.00;-17125.47;5008076;28;20018;-75
2023/10/17 11:28:46;;;;;;;12.38;8.77;;;;;;;-148.88;100.00;-17125.47;5008114;28;20035;-77
2023/10/17 11:31:13;;;;;;;11.25;8.38;;;;;;;-148.88;100.00;-17125.47;4993398;28;20100;-77
2023/10/17 11:33:45;;;;;;;11.25;8.52;;;;;;;-148.88;100.00;-17125.47;4993267;28;20508;-76
2023/10/17 11:36:21;;;;;;;12.82;8.82;;;;;;;-148.88;100.00;-17125.47;5008552;28;20034;-77
2023/10/17 11:38:56;;;;;;;11.77;9.02;;;;;;;-148.88;100.00;-17125.47;4993077;28;20032;-77
2023/10/17 11:41:28;;;;;;;11.05;8.45;;;;;;;-148.88;100.00;-17125.47;5008135;28;20084;-75
2023/10/17 11:43:54;;;;;;;11.63;9.40;;;;;;;-148.88;100.00;-17125.47;4993055;28;20062;-75
2023/10/17 11:46:30;;;;;;;11.27;8.80;;;;;;;-148.88;100.00;-17125.47;4993359;28;20018;-75
2023/10/17 11:49:21;;;;;;;11.00;8.20;;;;;;;-148.88;100.00;-17125.47;4995198;28;20028;-75
2023/10/17 11:52:10;;;;;;;12.20;9.50;;;;;;;-148.88;100.00;-17125.47;5011392;28;20026;-75
2023/10/17 11:54:55;;;;;;;11.75;9.15;;;;;;;-148.88;100.00;-17125.47;4996585;28;20022;-75
2023/10/17 11:57:25;;;;;;;12.48;9.85;;;;;;;-148.88;100.00;-17125.47;4996397;28;20037;-75
2023/10/17 12:00:06;;;;;;;13.13;9.70;;;;;;;-148.88;100.00;-17125.47;4994942;28;20053;-75
2023/10/17 12:02:31;;;;;;;12.35;9.52;;;;;;;-148.88;100.00;-17125.47;4996487;28;20445;-75
2023/10/17 12:05:00;;;;;;;15.95;9.65;;;;;;;-148.88;100.00;-17125.47;4994928;28;20029;-75
2023/10/17 12:07:25;;;;;;;12.30;9.60;;;;;;;-148.88;100.00;-17125.47;4996182;28;20026;-75
2023/10/17 12:09:53;;;;;;;11.60;8.88;;;;;;;-148.88;100.00;-17125.47;4995888;28;20022;-75
2023/10/17 12:12:19;;;;;;;13.60;9.68;;;;;;;-148.88;100.00;-17125.47;4996299;28;20084;-75
2023/10/17 12:14:45;;;;;;;14.55;9.85;;;;;;;-148.88;100.00;-17125.47;4995986;28;20026;-75
2023/10/17 12:17:13;;;;;;;12.82;9.25;;;;;;;-148.88;100.00;-17125.47;4995969;28;20109;-75
2023/10/17 12:19:40;;;;;;;16.83;10.88;;;;;;;-148.88;100.00;-17125.47;4994556;28;20117;-75
2023/10/17 12:22:06;;;;;;;12.77;10.07;;;;;;;-148.88;100.00;-17125.47;4994542;28;20026;-75
2023/10/17 12:24:37;;;;;;;13.77;9.50;;;;;;;-148.88;100.00;-17125.47;4995824;28;20031;-75
2023/10/17 12:27:06;;;;;;;12.40;9.90;;;;;;;-148.88;100.00;-17125.47;4995976;28;20022;-75
2023/10/17 12:29:34;;;;;;;11.70;9.27;;;;;;;-148.88;100.00;-17125.47;4995576;28;20023;-75
2023/10/17 12:32:01;;;;;;;10.85;8.95;;;;;;;-148.88;100.00;-17125.47;5010574;28;20044;-75
2023/10/17 12:34:27;;;;;;;14.85;9.43;;;;;;;-148.88;100.00;-17125.47;4995715;28;20025;-75
2023/10/17 12:36:53;;;;;;;13.02;9.05;;;;;;;-148.88;100.00;-17125.47;5010521;28;20034;-76
2023/10/17 12:39:19;;;;;;;10.00;7.65;;;;;;;-148.88;100.00;-17125.47;4995455;28;20048;-75
2023/10/17 12:41:49;;;;;;;8.43;7.32;;;;;;;-148.88;100.00;-17125.47;4995646;28;20073;-75
2023/10/17 12:44:15;;;;;;;10.25;8.35;;;;;;;-148.88;100.00;-17125.47;4994525;28;20022;-75
2023/10/17 12:46:41;;;;;;;10.52;7.68;;;;;;;-148.88;100.00;-17125.47;4995602;28;20022;-75
2023/10/17 12:49:06;;;;;;;9.65;7.85;;;;;;;-148.88;100.00;-17125.47;5010311;28;20084;-75
2023/10/17 12:51:32;;;;;;;8.75;7.20;;;;;;;-148.88;100.00;-17125.47;4995531;28;20525;-74
2023/10/17 12:53:58;;;;;;;8.50;6.82;;;;;;;-148.88;100.00;-17125.47;4995434;28;20029;-75
2023/10/17 12:56:27;;;;;;;10.70;7.40;;;;;;;-148.88;100.00;-17125.47;4995038;28;20107;-75
2023/10/17 12:58:52;;;;;;;9.18;6.93;;;;;;;-148.88;100.00;-17125.47;5010172;28;20022;-75
2023/10/17 13:01:18;;;;;;;9.65;6.88;;;;;;;-148.88;100.00;-17125.47;4995244;28;20026;-75
2023/10/17 13:03:43;;;;;;;9.13;6.30;;;;;;;-148.88;100.00;-17125.47;4994852;28;20022;-75
2023/10/17 13:06:09;;;;;;;9.82;6.40;;;;;;;-148.88;100.00;-17125.47;5009975;28;20023;-75
2023/10/17 13:08:35;;;;;;;8.55;6.03;;;;;;;-148.88;100.00;-17125.47;5009961;28;20025;-75
2023/10/17 13:11:02;;;;;;;8.85;5.90;;;;;;;-148.88;100.00;-17125.47;4993569;28;20120;-75
2023/10/17 13:13:30;;;;;;;7.03;5.50;;;;;;;-148.88;100.00;-17125.47;4994852;28;20030;-75
2023/10/17 13:15:57;;;;;;;8.75;5.47;;;;;;;-148.88;100.00;-17125.47;4994792;28;20497;-75
2023/10/17 13:18:29;;;;;;;9.98;6.32;;;;;;;-148.88;100.00;-17125.47;4993458;28;20026;-75
2023/10/17 13:21:02;;;;;;;6.32;5.07;;;;;;;-148.88;100.00;-17125.47;4994707;28;20080;-75
2023/10/17 13:23:28;;;;;;;6.80;5.35;;;;;;;-148.88;100.00;-17125.47;5009853;28;20027;-75
2023/10/17 13:25:53;;;;;;;7.82;5.43;;;;;;;-148.88;100.00;-17125.47;4994548;28;20489;-75